Time;durP1;ratioP1;P1;durP2;ratioP2;P2;SDS_P1;SDS_P2;PMS_P1;PMS_P2;Temp;Humidity;BMP_temperature;BMP_pressure;BME280_temperature;BME280_humidity;BME280_pressure;Samples;Min_cycle;Max_cycle;Signal;HPM_P1;HPM_P2
2023/04/04 00:00:12;;;;;;;3.95;1.95;;;;;;;;;;5009288;28;20394;-79
2023/04/04 00:02:37;;;;;;;4.57;2.28;;;;;;;;;;5011660;28;20104;-79
2023/04/04 00:05:04;;;;;;;4.82;2.10;;;;;;;;;;5014275;28;20516;-78
2023/04/04 00:07:30;;;;;;;3.35;1.92;;;;;;;;;;5012105;28;20057;-80
2023/04/04 00:09:55;;;;;;;3.88;1.88;;;;;;;;;;4991167;28;20535;-79
2023/04/04 00:12:21;;;;;;;4.07;2.10;;;;;;;;;;4993637;28;20535;-79
2023/04/04 00:14:47;;;;;;;5.30;2.30;;;;;;;;;;5007916;28;20033;-79
2023/04/04 00:17:12;;;;;;;5.10;2.17;;;;;;;;;;5010826;28;20041;-79
2023/04/04 00:19:37;;;;;;;5.50;2.20;;;;;;;;;;4996654;28;20033;-79
2023/04/04 00:22:03;;;;;;;3.55;2.10;;;;;;;;;;4993462;28;20057;-79
2023/04/04 00:24:29;;;;;;;4.70;2.40;;;;;;;;;;5008550;28;20403;-79
2023/04/04 00:26:54;;;;;;;4.78;2.00;;;;;;;;;;5012132;28;20036;-79
2023/04/04 00:29:20;;;;;;;5.60;2.58;;;;;;;;;;5011644;28;20105;-79
2023/04/04 00:31:45;;;;;;;4.53;2.17;;;;;;;;;;5011767;28;20506;-79
2023/04/04 00:34:11;;;;;;;6.43;2.03;;;;;;;;;;5013888;28;20446;-79
2023/04/04 00:36:36;;;;;;;3.65;2.10;;;;;;;;;;4997081;28;20033;-79
2023/04/04 00:39:02;;;;;;;4.68;2.20;;;;;;;;;;5013784;28;20026;-79
2023/04/04 00:41:27;;;;;;;4.82;2.20;;;;;;;;;;5006630;28;20497;-79
2023/04/04 00:43:54;;;;;;;4.75;2.40;;;;;;;;;;4993408;28;20254;-79
2023/04/04 00:46:20;;;;;;;3.50;2.13;;;;;;;;;;4991828;28;20029;-79
2023/04/04 00:48:47;;;;;;;4.07;2.35;;;;;;;;;;5012947;28;20026;-79
2023/04/04 00:51:12;;;;;;;4.43;2.30;;;;;;;;;;5008980;28;20026;-79
2023/04/04 00:53:38;;;;;;;4.90;2.33;;;;;;;;;;5010272;28;20407;-79
2023/04/04 00:56:03;;;;;;;3.83;2.20;;;;;;;;;;5011538;28;20034;-79
2023/04/04 00:58:29;;;;;;;7.13;2.42;;;;;;;;;;5009092;28;20478;-79
2023/04/04 01:00:55;;;;;;;4.05;2.30;;;;;;;;;;5012232;28;20030;-79
2023/04/04 01:03:20;;;;;;;4.82;2.35;;;;;;;;;;4995220;28;20021;-79
2023/04/04 01:05:46;;;;;;;5.53;2.30;;;;;;;;;;5013179;28;20061;-79
2023/04/04 01:08:12;;;;;;;6.57;2.33;;;;;;;;;;4993014;28;20376;-78
2023/04/04 01:10:38;;;;;;;4.40;2.42;;;;;;;;;;4993770;28;20029;-79
2023/04/04 01:13:04;;;;;;;4.60;2.30;;;;;;;;;;4995742;28;20093;-79
2023/04/04 01:15:30;;;;;;;4.85;2.40;;;;;;;;;;5009173;28;20524;-79
2023/04/04 01:17:58;;;;;;;3.67;2.08;;;;;;;;;;5012957;28;20026;-79
2023/04/04 01:20:25;;;;;;;3.72;2.17;;;;;;;;;;5003836;28;20038;-79
2023/04/04 01:22:53;;;;;;;3.88;2.30;;;;;;;;;;4992754;28;20083;-78
2023/04/04 01:25:26;;;;;;;5.72;2.50;;;;;;;;;;5012226;28;20064;-79
2023/04/04 01:27:52;;;;;;;;;;;;;;;;;;4992280;28;20501;-79
2023/04/04 01:30:18;;;;;;;6.15;2.03;;;;;;;;;;4995252;28;19917;-79
2023/04/04 01:32:53;;;;;;;4.63;2.22;;;;;;;;;;4994010;28;20512;-79
2023/04/04 01:35:44;;;;;;;4.47;2.65;;;;;;;;;;5005518;28;20027;-79
2023/04/04 01:38:19;;;;;;;5.30;2.55;;;;;;;;;;4992682;28;20026;-79
2023/04/04 01:40:48;;;;;;;4.53;2.35;;;;;;;;;;5010136;28;20491;-79
2023/04/04 01:43:13;;;;;;;5.55;2.38;;;;;;;;;;4993983;28;20483;-79
2023/04/04 01:45:39;;;;;;;5.80;2.20;;;;;;;;;;4987628;28;20022;-79
2023/04/04 01:48:05;;;;;;;4.47;2.40;;;;;;;;;;5009767;28;20097;-78
2023/04/04 01:50:30;;;;;;;5.22;2.50;;;;;;;;;;5007071;28;20032;-79
2023/04/04 01:52:56;;;;;;;4.60;1.90;;;;;;;;;;4995290;28;20034;-79
2023/04/04 01:55:21;;;;;;;3.78;2.15;;;;;;;;;;5015538;28;20053;-79
2023/04/04 01:57:47;;;;;;;4.25;2.20;;;;;;;;;;4994122;28;20040;-79
2023/04/04 02:00:12;;;;;;;4.32;2.30;;;;;;;;;;4995044;28;20032;-79
2023/04/04 02:02:37;;;;;;;4.13;2.22;;;;;;;;;;5013344;28;20417;-78
2023/04/04 02:05:03;;;;;;;4.40;2.10;;;;;;;;;;5011342;28;20028;-79
2023/04/04 02:07:29;;;;;;;5.63;2.60;;;;;;;;;;5010270;28;20133;-79
2023/04/04 02:09:54;;;;;;;4.55;2.33;;;;;;;;;;4990867;28;20033;-78
2023/04/04 02:12:19;;;;;;;4.68;2.53;;;;;;;;;;5005830;28;20501;-78
2023/04/04 02:14:45;;;;;;;4.43;2.60;;;;;;;;;;5009185;28;20030;-78
2023/04/04 02:17:10;;;;;;;4.18;2.10;;;;;;;;;;4993006;28;20040;-78
2023/04/04 02:19:35;;;;;;;3.72;2.20;;;;;;;;;;4990439;28;20036;-79
2023/04/04 02:22:01;;;;;;;4.65;2.40;;;;;;;;;;5013984;28;20037;-79
2023/04/04 02:24:26;;;;;;;4.35;2.13;;;;;;;;;;5012950;28;20034;-78
2023/04/04 02:26:52;;;;;;;4.10;2.15;;;;;;;;;;5013105;28;20062;-79
2023/04/04 02:29:18;;;;;;;4.15;1.90;;;;;;;;;;5012174;28;20040;-78
2023/04/04 02:31:43;;;;;;;4.25;2.15;;;;;;;;;;4997959;28;20026;-79
2023/04/04 02:34:08;;;;;;;5.38;2.38;;;;;;;;;;5013506;28;20046;-79
2023/04/04 02:36:34;;;;;;;3.63;2.08;;;;;;;;;;4987763;28;20030;-79
2023/04/04 02:38:59;;;;;;;4.53;2.20;;;;;;;;;;5011552;28;20080;-79
2023/04/04 02:41:25;;;;;;;4.18;2.42;;;;;;;;;;5011909;28;20137;-79
2023/04/04 02:43:50;;;;;;;3.90;2.17;;;;;;;;;;5012675;28;20026;-78
2023/04/04 02:46:16;;;;;;;6.10;1.92;;;;;;;;;;4998032;28;20025;-79
2023/04/04 02:48:42;;;;;;;4.75;2.15;;;;;;;;;;5012709;28;20113;-79
2023/04/04 02:51:07;;;;;;;4.22;2.30;;;;;;;;;;5022694;28;20104;-79
2023/04/04 02:53:32;;;;;;;4.32;2.13;;;;;;;;;;5014991;28;20026;-79
2023/04/04 02:55:58;;;;;;;4.60;2.15;;;;;;;;;;5012069;28;20033;-79
2023/04/04 02:58:23;;;;;;;4.40;1.98;;;;;;;;;;5013773;28;20030;-79
2023/04/04 03:00:55;;;;;;;3.80;1.88;;;;;;;;;;4997820;28;20025;-79
2023/04/04 03:03:20;;;;;;;3.75;1.95;;;;;;;;;;5009979;28;20029;-78
2023/04/04 03:05:48;;;;;;;4.32;2.20;;;;;;;;;;5015227;28;20029;-79
2023/04/04 03:08:14;;;;;;;3.22;1.90;;;;;;;;;;4999016;28;20022;-79
2023/04/04 03:10:39;;;;;;;5.68;2.25;;;;;;;;;;5018237;28;20026;-79
2023/04/04 03:13:04;;;;;;;5.70;2.60;;;;;;;;;;4998659;28;20033;-79
2023/04/04 03:15:30;;;;;;;3.75;1.90;;;;;;;;;;5018254;28;20394;-79
2023/04/04 03:17:55;;;;;;;3.50;1.90;;;;;;;;;;5012190;28;20041;-79
2023/04/04 03:20:21;;;;;;;4.63;2.30;;;;;;;;;;4997276;28;20033;-80
2023/04/04 03:22:47;;;;;;;4.25;2.00;;;;;;;;;;5014049;28;20033;-79
2023/04/04 03:25:12;;;;;;;5.13;2.00;;;;;;;;;;5015646;28;20022;-79
2023/04/04 03:27:38;;;;;;;5.13;2.17;;;;;;;;;;4996386;28;20505;-79
2023/04/04 03:30:06;;;;;;;5.53;2.10;;;;;;;;;;5000133;28;20028;-79
2023/04/04 03:32:31;;;;;;;4.90;2.20;;;;;;;;;;4991549;28;20057;-79
2023/04/04 03:34:56;;;;;;;3.28;1.88;;;;;;;;;;5017158;28;20033;-79
2023/04/04 03:37:22;;;;;;;4.60;2.40;;;;;;;;;;5010390;28;20036;-80
2023/04/04 03:39:47;;;;;;;4.03;1.92;;;;;;;;;;5011616;28;20033;-79
2023/04/04 03:42:13;;;;;;;4.70;2.03;;;;;;;;;;5015794;28;20030;-80
2023/04/04 03:44:41;;;;;;;4.63;2.30;;;;;;;;;;5009334;28;20021;-79
2023/04/04 03:47:07;;;;;;;5.03;2.63;;;;;;;;;;4996503;28;20482;-80
2023/04/04 03:49:35;;;;;;;4.55;2.35;;;;;;;;;;4995750;28;20033;-80
2023/04/04 03:52:03;;;;;;;5.10;2.20;;;;;;;;;;5014711;28;20061;-79
2023/04/04 03:54:29;;;;;;;5.07;1.95;;;;;;;;;;4981205;28;20033;-80
2023/04/04 03:56:55;;;;;;;4.72;2.33;;;;;;;;;;4977028;28;20042;-80
2023/04/04 03:59:21;;;;;;;3.92;2.20;;;;;;;;;;5014320;28;20028;-80
2023/04/04 04:01:47;;;;;;;4.20;1.92;;;;;;;;;;5010118;28;20037;-80
2023/04/04 04:04:12;;;;;;;5.25;2.33;;;;;;;;;;4994441;28;20018;-79
2023/04/04 04:06:38;;;;;;;4.88;2.72;;;;;;;;;;4992328;28;20026;-79
2023/04/04 04:09:03;;;;;;;4.53;2.15;;;;;;;;;;5009579;28;20081;-80
2023/04/04 04:11:28;;;;;;;4.47;2.40;;;;;;;;;;5004717;28;20449;-80
2023/04/04 04:13:54;;;;;;;4.55;2.33;;;;;;;;;;4995109;28;20074;-80
2023/04/04 04:16:21;;;;;;;3.70;2.28;;;;;;;;;;5011135;28;20030;-79
2023/04/04 04:18:46;;;;;;;5.18;2.60;;;;;;;;;;4995342;28;20022;-79
2023/04/04 04:21:12;;;;;;;4.10;1.92;;;;;;;;;;4997996;28;20623;-79
2023/04/04 04:23:37;;;;;;;5.20;2.40;;;;;;;;;;5016493;28;20509;-79
2023/04/04 04:26:03;;;;;;;5.88;2.58;;;;;;;;;;4997938;28;20066;-79
2023/04/04 04:28:29;;;;;;;4.60;2.40;;;;;;;;;;4992205;28;20036;-79
2023/04/04 04:30:54;;;;;;;4.03;2.05;;;;;;;;;;4992733;28;20121;-79
2023/04/04 04:33:19;;;;;;;5.80;2.40;;;;;;;;;;5000352;28;20022;-79
2023/04/04 04:35:45;;;;;;;4.97;2.42;;;;;;;;;;5022827;28;20421;-80
2023/04/04 04:38:11;;;;;;;3.65;2.08;;;;;;;;;;5023230;28;20537;-79
2023/04/04 04:40:36;;;;;;;4.75;2.05;;;;;;;;;;5021612;28;20036;-80
2023/04/04 04:43:02;;;;;;;5.25;2.53;;;;;;;;;;5017758;28;20156;-80
2023/04/04 04:45:27;;;;;;;4.55;2.55;;;;;;;;;;5009815;28;20040;-77
2023/04/04 04:47:53;;;;;;;4.20;2.35;;;;;;;;;;4989107;28;20382;-77
2023/04/04 04:50:18;;;;;;;4.65;2.35;;;;;;;;;;5009426;28;20025;-77
2023/04/04 04:52:44;;;;;;;5.10;2.42;;;;;;;;;;4989679;28;20068;-77
2023/04/04 04:55:10;;;;;;;4.85;2.53;;;;;;;;;;5002794;28;20069;-77
2023/04/04 04:57:36;;;;;;;4.68;2.28;;;;;;;;;;4996434;28;20116;-77
2023/04/04 05:00:03;;;;;;;4.47;2.55;;;;;;;;;;5012381;28;20060;-78
2023/04/04 05:02:29;;;;;;;4.45;2.63;;;;;;;;;;4989486;28;20048;-77
2023/04/04 05:04:54;;;;;;;6.07;3.00;;;;;;;;;;5007350;28;20021;-77
2023/04/04 05:07:20;;;;;;;5.82;2.45;;;;;;;;;;4996810;28;20025;-77
2023/04/04 05:09:45;;;;;;;5.50;2.42;;;;;;;;;;5016089;28;20061;-77
2023/04/04 05:12:10;;;;;;;4.80;2.90;;;;;;;;;;4995043;28;20033;-77
2023/04/04 05:14:36;;;;;;;6.07;2.58;;;;;;;;;;4991123;28;20121;-77
2023/04/04 05:17:01;;;;;;;6.00;2.92;;;;;;;;;;4992549;28;20072;-77
2023/04/04 05:19:27;;;;;;;6.05;2.50;;;;;;;;;;4995834;28;20038;-77
2023/04/04 05:21:53;;;;;;;6.70;2.92;;;;;;;;;;5012113;28;20030;-77
2023/04/04 05:24:18;;;;;;;4.97;2.55;;;;;;;;;;5006761;28;20080;-79
2023/04/04 05:26:44;;;;;;;4.22;2.45;;;;;;;;;;4987615;28;20021;-77
2023/04/04 05:29:10;;;;;;;4.18;2.67;;;;;;;;;;4994462;28;20037;-77
2023/04/04 05:31:35;;;;;;;4.78;2.50;;;;;;;;;;5013716;28;20394;-77
2023/04/04 05:34:06;;;;;;;5.40;2.47;;;;;;;;;;5009492;28;20199;-77
2023/04/04 05:36:35;;;;;;;5.75;2.60;;;;;;;;;;4994843;28;20034;-77
2023/04/04 05:39:03;;;;;;;6.22;2.70;;;;;;;;;;5006441;28;20036;-78
2023/04/04 05:41:29;;;;;;;5.00;2.63;;;;;;;;;;5013662;28;20053;-78
2023/04/04 05:43:55;;;;;;;5.60;2.58;;;;;;;;;;4994575;28;20022;-78
2023/04/04 05:46:20;;;;;;;4.70;2.50;;;;;;;;;;5012260;28;20104;-77
2023/04/04 05:48:46;;;;;;;5.03;2.55;;;;;;;;;;5006758;28;20030;-78
2023/04/04 05:51:11;;;;;;;5.00;2.88;;;;;;;;;;5011797;28;20049;-78
2023/04/04 05:53:37;;;;;;;4.95;2.50;;;;;;;;;;5008330;28;20030;-77
2023/04/04 05:56:02;;;;;;;6.03;2.67;;;;;;;;;;5006863;28;20524;-77
2023/04/04 05:58:28;;;;;;;5.47;2.58;;;;;;;;;;5011382;28;20030;-77
2023/04/04 06:00:54;;;;;;;5.03;2.90;;;;;;;;;;4990331;28;20478;-77
2023/04/04 06:03:19;;;;;;;6.57;3.00;;;;;;;;;;5010003;28;20022;-77
2023/04/04 06:05:50;;;;;;;4.22;2.47;;;;;;;;;;5006217;28;20025;-78
2023/04/04 06:08:15;;;;;;;5.03;2.72;;;;;;;;;;4988433;28;20102;-77
2023/04/04 06:10:40;;;;;;;4.70;2.60;;;;;;;;;;4992266;28;20054;-78
2023/04/04 06:13:06;;;;;;;5.00;2.83;;;;;;;;;;4993075;28;20196;-78
2023/04/04 06:15:31;;;;;;;4.60;2.80;;;;;;;;;;4992901;28;20034;-77
2023/04/04 06:17:56;;;;;;;4.93;2.55;;;;;;;;;;5013029;28;20045;-77
2023/04/04 06:20:22;;;;;;;4.85;2.95;;;;;;;;;;5009129;28;20025;-78
2023/04/04 06:22:48;;;;;;;4.72;2.80;;;;;;;;;;5008876;28;20028;-77
2023/04/04 06:25:14;;;;;;;5.53;2.80;;;;;;;;;;4991730;28;20030;-77
2023/04/04 06:27:39;;;;;;;5.20;3.00;;;;;;;;;;4994388;28;20049;-78
2023/04/04 06:30:05;;;;;;;4.88;2.80;;;;;;;;;;5011850;28;20041;-78
2023/04/04 06:32:31;;;;;;;5.10;3.03;;;;;;;;;;4995493;28;20116;-77
2023/04/04 06:34:56;;;;;;;4.80;2.80;;;;;;;;;;5007967;28;20124;-78
2023/04/04 06:37:22;;;;;;;5.47;3.30;;;;;;;;;;4993222;28;20037;-78
2023/04/04 06:39:47;;;;;;;5.30;2.75;;;;;;;;;;5009966;28;20033;-77
2023/04/04 06:42:12;;;;;;;6.20;2.67;;;;;;;;;;4993061;28;20022;-78
2023/04/04 06:44:38;;;;;;;6.45;3.20;;;;;;;;;;4975687;28;20026;-78
2023/04/04 06:47:03;;;;;;;5.95;2.92;;;;;;;;;;5012831;28;20069;-77
2023/04/04 06:49:28;;;;;;;7.18;2.55;;;;;;;;;;4993932;28;20517;-78
2023/04/04 06:51:54;;;;;;;6.38;3.20;;;;;;;;;;4994782;28;20036;-78
2023/04/04 06:54:19;;;;;;;5.18;2.88;;;;;;;;;;4993266;28;20026;-77
2023/04/04 06:56:45;;;;;;;6.22;3.08;;;;;;;;;;5012323;28;20501;-77
2023/04/04 06:59:11;;;;;;;6.47;3.15;;;;;;;;;;5012085;28;20030;-78
2023/04/04 07:01:36;;;;;;;6.05;2.97;;;;;;;;;;5011075;28;20108;-77
2023/04/04 07:04:02;;;;;;;6.25;3.05;;;;;;;;;;5008302;28;20112;-78
2023/04/04 07:06:28;;;;;;;8.95;3.30;;;;;;;;;;5009179;28;20057;-78
2023/04/04 07:08:54;;;;;;;5.63;2.70;;;;;;;;;;4996765;28;20049;-77
2023/04/04 07:11:22;;;;;;;7.75;3.05;;;;;;;;;;5010792;28;20478;-77
2023/04/04 07:13:48;;;;;;;6.80;3.13;;;;;;;;;;4994374;28;20088;-77
2023/04/04 07:16:13;;;;;;;6.22;3.10;;;;;;;;;;5005378;28;20030;-78
2023/04/04 07:18:38;;;;;;;4.72;2.95;;;;;;;;;;4994625;28;20030;-78
2023/04/04 07:21:04;;;;;;;7.43;3.78;;;;;;;;;;4991623;28;20057;-77
2023/04/04 07:23:29;;;;;;;5.05;2.83;;;;;;;;;;4993895;28;20085;-78
2023/04/04 07:25:55;;;;;;;5.57;3.08;;;;;;;;;;4994771;28;20029;-77
2023/04/04 07:28:21;;;;;;;7.50;3.05;;;;;;;;;;5007393;28;20021;-78
2023/04/04 07:30:46;;;;;;;6.18;3.08;;;;;;;;;;4988365;28;20034;-78
2023/04/04 07:33:12;;;;;;;8.63;3.20;;;;;;;;;;4991797;28;20508;-77
2023/04/04 07:35:37;;;;;;;6.80;2.72;;;;;;;;;;5011267;28;20034;-78
2023/04/04 07:38:03;;;;;;;5.00;2.78;;;;;;;;;;4993737;28;20021;-78
2023/04/04 07:40:28;;;;;;;5.47;2.70;;;;;;;;;;5004771;28;20394;-77
2023/04/04 07:42:54;;;;;;;6.13;2.80;;;;;;;;;;5010671;28;20061;-78
2023/04/04 07:45:20;;;;;;;6.32;3.03;;;;;;;;;;4993544;28;20123;-78
2023/04/04 07:47:46;;;;;;;6.35;3.50;;;;;;;;;;4996369;28;20946;-77
2023/04/04 07:50:12;;;;;;;6.60;2.83;;;;;;;;;;4994103;28;20068;-77
2023/04/04 07:52:38;;;;;;;6.10;3.17;;;;;;;;;;4996026;28;20172;-78
2023/04/04 07:55:06;;;;;;;7.32;3.22;;;;;;;;;;5004989;28;20112;-77
2023/04/04 07:57:32;;;;;;;6.63;2.80;;;;;;;;;;5010532;28;20029;-76
2023/04/04 07:59:57;;;;;;;6.05;3.30;;;;;;;;;;5014400;28;20034;-77
2023/04/04 08:02:22;;;;;;;6.28;3.17;;;;;;;;;;4996691;28;20029;-76
2023/04/04 08:04:48;;;;;;;5.18;2.83;;;;;;;;;;5009502;28;20081;-76
2023/04/04 08:07:13;;;;;;;8.45;3.13;;;;;;;;;;5008970;28;20025;-75
2023/04/04 08:09:38;;;;;;;5.28;2.80;;;;;;;;;;5014533;28;20072;-76
2023/04/04 08:12:07;;;;;;;5.68;3.00;;;;;;;;;;5013439;28;20054;-75
2023/04/04 08:14:32;;;;;;;5.63;2.55;;;;;;;;;;5013166;28;20108;-75
2023/04/04 08:16:58;;;;;;;5.72;3.15;;;;;;;;;;5012553;28;20105;-75
2023/04/04 08:19:23;;;;;;;5.13;2.75;;;;;;;;;;5012225;28;20030;-75
2023/04/04 08:21:48;;;;;;;6.85;3.22;;;;;;;;;;5014194;28;20124;-75
2023/04/04 08:24:14;;;;;;;6.43;3.00;;;;;;;;;;4997016;28;20022;-75
2023/04/04 08:26:41;;;;;;;8.05;2.78;;;;;;;;;;5014077;28;20061;-76
2023/04/04 08:29:06;;;;;;;4.38;2.40;;;;;;;;;;4977124;28;20030;-78
2023/04/04 08:31:33;;;;;;;5.65;2.85;;;;;;;;;;4990190;28;21300;-75
2023/04/04 08:34:00;;;;;;;5.35;2.63;;;;;;;;;;4984025;28;20084;-76
2023/04/04 08:36:25;;;;;;;7.70;2.45;;;;;;;;;;4991624;28;20076;-75
2023/04/04 08:38:51;;;;;;;7.43;2.53;;;;;;;;;;5007816;28;20486;-76
2023/04/04 08:41:16;;;;;;;3.80;2.22;;;;;;;;;;4989757;28;20105;-76
2023/04/04 08:43:53;;;;;;;5.13;2.10;;;;;;;;;;4995576;28;20049;-77
2023/04/04 08:46:20;;;;;;;5.03;2.03;;;;;;;;;;5009166;28;20084;-75
2023/04/04 08:48:47;;;;;;;3.92;1.75;;;;;;;;;;4996493;28;20017;-75
2023/04/04 08:51:13;;;;;;;2.55;1.40;;;;;;;;;;5012312;28;20388;-76
2023/04/04 08:53:39;;;;;;;3.08;1.40;;;;;;;;;;4987152;28;20025;-76
2023/04/04 08:56:05;;;;;;;4.88;1.70;;;;;;;;;;4997418;28;20474;-76
2023/04/04 08:58:30;;;;;;;6.55;2.03;;;;;;;;;;5012927;28;20076;-76
2023/04/04 09:00:56;;;;;;;5.10;2.00;;;;;;;;;;5009060;28;20447;-76
2023/04/04 09:03:26;;;;;;;4.38;1.95;;;;;;;;;;5012791;28;20056;-76
2023/04/04 09:05:55;;;;;;;4.45;1.92;;;;;;;;;;4993012;28;20478;-76
2023/04/04 09:08:23;;;;;;;3.42;1.80;;;;;;;;;;5004527;28;20032;-76
2023/04/04 09:10:50;;;;;;;6.93;2.72;;;;;;;;;;5009949;28;20028;-76
2023/04/04 09:13:16;;;;;;;4.22;2.25;;;;;;;;;;4995055;28;20052;-76
2023/04/04 09:15:46;;;;;;;5.32;2.30;;;;;;;;;;4993874;28;20034;-76
2023/04/04 09:18:11;;;;;;;5.18;2.60;;;;;;;;;;5013052;28;20032;-76
2023/04/04 09:20:44;;;;;;;4.43;2.13;;;;;;;;;;4968237;28;20034;-76
2023/04/04 09:23:14;;;;;;;4.97;2.13;;;;;;;;;;5011755;28;20033;-76
2023/04/04 09:26:06;;;;;;;7.57;2.60;;;;;;;;;;5012063;28;20041;-77
2023/04/04 09:28:32;;;;;;;4.90;1.92;;;;;;;;;;4985146;28;20393;-76
2023/04/04 09:31:03;;;;;;;5.50;2.17;;;;;;;;;;5016417;28;20030;-79
2023/04/04 09:33:30;;;;;;;4.38;2.08;;;;;;;;;;4995242;28;20037;-77
2023/04/04 09:36:06;;;;;;;4.38;2.10;;;;;;;;;;5011166;28;20110;-76
2023/04/04 09:38:35;;;;;;;5.85;2.28;;;;;;;;;;5005943;28;20179;-76
2023/04/04 09:41:01;;;;;;;7.40;2.10;;;;;;;;;;4993661;28;20018;-77
2023/04/04 09:43:29;;;;;;;3.85;1.80;;;;;;;;;;4987405;28;20398;-77
2023/04/04 09:45:55;;;;;;;4.13;1.70;;;;;;;;;;5006464;28;20600;-77
2023/04/04 09:48:31;;;;;;;5.57;2.10;;;;;;;;;;4995306;28;20029;-77
2023/04/04 09:51:00;;;;;;;5.10;2.22;;;;;;;;;;5011053;28;20498;-77
2023/04/04 09:53:26;;;;;;;4.25;2.20;;;;;;;;;;4998521;28;20077;-77
2023/04/04 09:55:56;;;;;;;6.20;1.98;;;;;;;;;;5010020;28;20029;-77
2023/04/04 09:58:26;;;;;;;9.77;2.15;;;;;;;;;;4992167;28;20025;-77
2023/04/04 10:00:55;;;;;;;4.35;1.88;;;;;;;;;;5000656;28;20493;-77
2023/04/04 10:03:22;;;;;;;5.22;2.10;;;;;;;;;;4991718;28;20060;-76
2023/04/04 10:05:59;;;;;;;4.57;2.08;;;;;;;;;;4991303;28;20041;-77
2023/04/04 10:08:27;;;;;;;5.50;1.80;;;;;;;;;;5007793;28;20041;-77
2023/04/04 10:10:58;;;;;;;3.83;1.98;;;;;;;;;;4999947;28;20401;-77
2023/04/04 10:13:28;;;;;;;4.05;1.90;;;;;;;;;;5012321;28;20034;-76
2023/04/04 10:15:56;;;;;;;4.95;1.75;;;;;;;;;;4993065;28;20026;-77
2023/04/04 10:18:26;;;;;;;4.57;1.90;;;;;;;;;;4995911;28;20065;-80
2023/04/04 10:20:53;;;;;;;4.55;1.70;;;;;;;;;;4995120;28;20117;-80
2023/04/04 10:23:22;;;;;;;3.58;1.75;;;;;;;;;;5012361;28;20460;-79
2023/04/04 10:25:48;;;;;;;5.50;1.80;;;;;;;;;;4985277;28;20029;-79
2023/04/04 10:28:15;;;;;;;4.13;1.80;;;;;;;;;;5013042;28;20018;-80
2023/04/04 10:30:46;;;;;;;5.43;1.90;;;;;;;;;;5012387;28;20041;-79
2023/04/04 10:33:20;;;;;;;5.57;1.83;;;;;;;;;;4995899;28;20033;-80
2023/04/04 10:35:50;;;;;;;4.18;1.98;;;;;;;;;;5011798;28;20064;-80
2023/04/04 10:38:20;;;;;;;6.20;2.05;;;;;;;;;;5008631;28;20117;-79
2023/04/04 10:40:49;;;;;;;5.45;1.70;;;;;;;;;;5012741;28;20112;-79
2023/04/04 10:43:18;;;;;;;3.42;1.58;;;;;;;;;;5013088;28;20437;-79
2023/04/04 10:45:44;;;;;;;2.95;1.63;;;;;;;;;;4985485;28;20033;-80
2023/04/04 10:48:09;;;;;;;4.35;2.15;;;;;;;;;;5005918;28;20431;-80
2023/04/04 10:50:35;;;;;;;3.63;2.00;;;;;;;;;;4995229;28;20116;-80
2023/04/04 10:53:03;;;;;;;7.32;2.35;;;;;;;;;;5010321;28;20028;-80
2023/04/04 10:55:30;;;;;;;4.13;2.03;;;;;;;;;;4994171;28;20026;-79
2023/04/04 10:57:56;;;;;;;5.20;1.95;;;;;;;;;;4991590;28;20162;-79
2023/04/04 11:00:23;;;;;;;5.75;2.10;;;;;;;;;;4994869;28;20029;-80
2023/04/04 11:02:58;;;;;;;4.82;1.92;;;;;;;;;;5015448;28;20068;-80
2023/04/04 11:05:40;;;;;;;4.60;2.10;;;;;;;;;;5009006;28;20022;-80
2023/04/04 11:08:08;;;;;;;5.93;2.05;;;;;;;;;;5008084;28;20420;-81
2023/04/04 11:10:44;;;;;;;4.03;1.85;;;;;;;;;;5008724;28;20030;-80
2023/04/04 11:13:12;;;;;;;4.78;2.05;;;;;;;;;;5007037;28;20046;-80
2023/04/04 11:16:02;;;;;;;5.47;2.00;;;;;;;;;;5010372;28;20038;-80
2023/04/04 11:18:30;;;;;;;5.80;2.30;;;;;;;;;;5010163;28;20076;-80
2023/04/04 11:20:56;;;;;;;4.72;2.28;;;;;;;;;;5011564;28;20469;-81
2023/04/04 11:23:22;;;;;;;4.32;1.85;;;;;;;;;;4999700;28;20120;-81
2023/04/04 11:25:51;;;;;;;5.85;1.90;;;;;;;;;;4998151;28;21675;-80
2023/04/04 11:28:35;;;;;;;5.18;2.22;;;;;;;;;;5017010;28;20028;-80
2023/04/04 11:31:16;;;;;;;;;;;;;;;;;;5012664;28;20052;-79
2023/04/04 11:34:07;;;;;;;3.70;2.10;;;;;;;;;;4994265;28;19924;-82
2023/04/04 11:36:35;;;;;;;4.07;1.98;;;;;;;;;;5015875;28;20085;-81
2023/04/04 11:39:27;;;;;;;3.80;2.08;;;;;;;;;;5017856;28;20434;-81
2023/04/04 11:41:58;;;;;;;7.43;2.17;;;;;;;;;;4999208;28;20171;-81
2023/04/04 11:44:29;;;;;;;4.38;2.28;;;;;;;;;;4993545;28;20032;-80
2023/04/04 11:47:17;;;;;;;5.97;2.38;;;;;;;;;;5014396;28;20497;-81
2023/04/04 11:49:45;;;;;;;4.65;2.28;;;;;;;;;;4993650;28;20030;-81
2023/04/04 11:52:17;;;;;;;5.70;2.60;;;;;;;;;;4987641;28;20125;-80
2023/04/04 11:54:46;;;;;;;8.27;2.50;;;;;;;;;;4996736;28;20029;-81
2023/04/04 11:57:17;;;;;;;5.47;2.22;;;;;;;;;;5013714;28;20022;-81
2023/04/04 11:59:47;;;;;;;5.35;2.45;;;;;;;;;;4990354;28;20105;-80
2023/04/04 12:02:18;;;;;;;5.63;2.53;;;;;;;;;;5015896;28;20025;-81
2023/04/04 12:04:44;;;;;;;4.25;2.25;;;;;;;;;;4996574;28;20109;-79
2023/04/04 12:07:11;;;;;;;5.65;2.50;;;;;;;;;;5010099;28;20057;-81
2023/04/04 12:09:37;;;;;;;4.60;2.17;;;;;;;;;;4997053;28;20371;-81
2023/04/04 12:12:03;;;;;;;5.25;2.40;;;;;;;;;;5010632;28;20060;-81
2023/04/04 12:14:31;;;;;;;5.53;2.55;;;;;;;;;;4996940;28;20096;-80
2023/04/04 12:16:58;;;;;;;4.57;2.47;;;;;;;;;;5005424;28;20470;-78
2023/04/04 12:19:25;;;;;;;6.13;2.60;;;;;;;;;;5015034;28;20036;-81
2023/04/04 12:21:52;;;;;;;5.85;2.58;;;;;;;;;;4996708;28;20030;-81
2023/04/04 12:24:17;;;;;;;4.10;2.22;;;;;;;;;;5011003;28;20022;-81
2023/04/04 12:26:45;;;;;;;5.22;2.60;;;;;;;;;;5025434;28;20100;-81
2023/04/04 12:29:12;;;;;;;3.47;2.20;;;;;;;;;;5009511;28;20112;-82
2023/04/04 12:31:40;;;;;;;4.38;2.42;;;;;;;;;;5011239;28;20045;-80
2023/04/04 12:34:07;;;;;;;4.53;2.50;;;;;;;;;;5006326;28;20077;-81
2023/04/04 12:36:36;;;;;;;5.20;2.60;;;;;;;;;;5008627;28;20026;-81
2023/04/04 12:39:07;;;;;;;5.38;2.80;;;;;;;;;;5014598;28;20022;-81
2023/04/04 12:41:34;;;;;;;7.18;2.60;;;;;;;;;;5011420;28;20075;-78
2023/04/04 12:44:02;;;;;;;5.40;2.40;;;;;;;;;;4997264;28;20543;-81
2023/04/04 12:46:34;;;;;;;5.43;2.70;;;;;;;;;;5012787;28;20891;-81
2023/04/04 12:49:00;;;;;;;3.50;2.13;;;;;;;;;;5009823;28;20068;-81
2023/04/04 12:51:32;;;;;;;4.72;2.38;;;;;;;;;;5011447;28;20092;-81
2023/04/04 12:53:58;;;;;;;6.68;2.30;;;;;;;;;;5012004;28;20041;-79
2023/04/04 12:56:27;;;;;;;6.22;2.75;;;;;;;;;;4996970;28;20030;-78
2023/04/04 12:58:59;;;;;;;7.97;2.60;;;;;;;;;;4995957;28;20026;-81
2023/04/04 13:01:24;;;;;;;4.57;2.28;;;;;;;;;;5009347;28;20837;-81
2023/04/04 13:03:51;;;;;;;9.35;3.15;;;;;;;;;;4993354;28;20113;-81
2023/04/04 13:06:18;;;;;;;6.38;2.83;;;;;;;;;;4994953;28;20036;-81
2023/04/04 13:08:53;;;;;;;5.07;2.72;;;;;;;;;;4990741;28;20143;-81
2023/04/04 13:11:19;;;;;;;5.55;2.60;;;;;;;;;;5014397;28;20105;-81
2023/04/04 13:13:45;;;;;;;6.00;2.83;;;;;;;;;;5013987;28;20120;-81
2023/04/04 13:16:29;;;;;;;7.13;2.85;;;;;;;;;;5010006;28;20440;-81
2023/04/04 13:18:55;;;;;;;5.07;2.55;;;;;;;;;;4992652;28;20053;-81
2023/04/04 13:21:20;;;;;;;4.03;2.47;;;;;;;;;;4994495;28;20069;-82
2023/04/04 13:23:46;;;;;;;5.10;2.50;;;;;;;;;;5010720;28;20129;-81
2023/04/04 13:26:11;;;;;;;5.68;2.55;;;;;;;;;;5005146;28;20037;-81
2023/04/04 13:28:37;;;;;;;6.05;2.70;;;;;;;;;;4996518;28;20042;-81
2023/04/04 13:31:07;;;;;;;5.10;2.65;;;;;;;;;;4990658;28;20030;-79
2023/04/04 13:33:33;;;;;;;4.45;2.53;;;;;;;;;;5007762;28;20033;-81
2023/04/04 13:35:59;;;;;;;4.88;2.50;;;;;;;;;;4993304;28;20101;-81
2023/04/04 13:38:26;;;;;;;4.53;2.50;;;;;;;;;;5010203;28;20034;-80
2023/04/04 13:40:51;;;;;;;6.20;2.78;;;;;;;;;;4992785;28;20394;-81
2023/04/04 13:43:16;;;;;;;5.63;2.47;;;;;;;;;;4988458;28;20037;-81
2023/04/04 13:45:42;;;;;;;6.90;2.90;;;;;;;;;;4994321;28;20195;-81
2023/04/04 13:48:08;;;;;;;4.60;2.58;;;;;;;;;;4980005;28;20034;-79
2023/04/04 13:50:35;;;;;;;5.45;2.67;;;;;;;;;;5017932;28;20026;-81
2023/04/04 13:53:01;;;;;;;5.35;2.60;;;;;;;;;;5011986;28;20037;-81
2023/04/04 13:55:26;;;;;;;4.90;2.90;;;;;;;;;;4994073;28;20124;-81
2023/04/04 13:57:52;;;;;;;4.97;2.70;;;;;;;;;;4984140;28;20030;-81
2023/04/04 14:00:17;;;;;;;7.03;2.72;;;;;;;;;;5011238;28;20025;-80
2023/04/04 14:02:43;;;;;;;5.07;2.70;;;;;;;;;;5006205;28;20060;-81
2023/04/04 14:05:08;;;;;;;5.00;2.83;;;;;;;;;;4985898;28;20129;-81
2023/04/04 14:07:36;;;;;;;5.55;2.60;;;;;;;;;;4995319;28;20030;-81
2023/04/04 14:10:02;;;;;;;4.40;2.67;;;;;;;;;;5007295;28;20032;-79
2023/04/04 14:12:27;;;;;;;5.82;2.72;;;;;;;;;;5007477;28;20746;-81
2023/04/04 14:14:52;;;;;;;5.63;2.42;;;;;;;;;;4975699;28;20110;-80
2023/04/04 14:17:18;;;;;;;5.72;2.53;;;;;;;;;;5010226;28;20033;-81
2023/04/04 14:19:43;;;;;;;5.00;2.58;;;;;;;;;;4995152;28;20375;-81
2023/04/04 14:22:09;;;;;;;6.38;3.22;;;;;;;;;;4996866;28;20670;-81
2023/04/04 14:24:34;;;;;;;5.18;2.47;;;;;;;;;;5013847;28;20026;-81
2023/04/04 14:27:00;;;;;;;4.85;2.53;;;;;;;;;;4993032;28;20565;-81
2023/04/04 14:29:25;;;;;;;4.60;2.60;;;;;;;;;;4998193;28;20029;-81
2023/04/04 14:31:51;;;;;;;4.43;2.50;;;;;;;;;;5009809;28;20493;-81
2023/04/04 14:34:16;;;;;;;5.75;2.70;;;;;;;;;;5009913;28;20018;-81
2023/04/04 14:36:41;;;;;;;6.90;2.90;;;;;;;;;;4991778;28;20054;-81
2023/04/04 14:39:07;;;;;;;6.65;2.95;;;;;;;;;;5006031;28;20030;-81
2023/04/04 14:41:32;;;;;;;4.68;2.17;;;;;;;;;;5004194;28;20071;-81